createdAt,value
2019-02-04T00:02:55.279Z,98414.63
2019-02-04T00:07:58.669Z,98424.84
2019-02-04T00:13:02.084Z,98425.73
2019-02-04T00:18:05.854Z,98437.70
2019-02-04T00:23:10.257Z,98444.54
2019-02-04T00:28:13.752Z,98447.95
2019-02-04T00:33:17.136Z,98453.54
2019-02-04T00:38:20.613Z,98453.51
2019-02-04T00:43:24.119Z,98468.45
2019-02-04T00:48:27.551Z,98475.33
2019-02-04T00:53:30.996Z,98486.44
2019-02-04T00:58:34.460Z,98487.28
2019-02-04T01:03:37.928Z,98494.61
2019-02-04T01:08:41.396Z,98506.16
2019-02-04T01:13:44.769Z,98515.55
2019-02-04T01:18:48.224Z,98524.52
2019-02-04T01:23:51.720Z,98526.62
2019-02-04T01:28:55.149Z,98525.75
2019-02-04T01:33:58.655Z,98521.47
2019-02-04T01:39:02.059Z,98536.05
2019-02-04T01:44:05.864Z,98533.08
2019-02-04T01:49:09.673Z,98541.61
2019-02-04T01:54:13.059Z,98545.02
2019-02-04T01:59:16.431Z,98557.78
2019-02-04T02:04:19.869Z,98558.56
2019-02-04T02:09:24.940Z,98565.33
2019-02-04T02:14:28.484Z,98572.55
2019-02-04T02:19:31.884Z,98573.78
2019-02-04T02:24:35.344Z,98579.32
2019-02-04T02:29:38.712Z,98578.60
2019-02-04T02:34:42.175Z,98590.37
2019-02-04T02:39:45.624Z,98596.82
2019-02-04T02:44:49.075Z,98604.02
2019-02-04T02:49:52.440Z,98601.00
2019-02-04T02:54:55.876Z,98606.55
2019-02-04T02:59:59.342Z,98608.14
2019-02-04T03:05:03.917Z,98612.41
2019-02-04T03:10:09.294Z,98612.71
2019-02-04T03:15:12.804Z,98620.61
2019-02-04T03:20:16.209Z,98624.23
2019-02-04T03:25:19.911Z,98624.28
2019-02-04T03:30:25.506Z,98632.81
2019-02-04T03:35:28.895Z,98644.40
2019-02-04T03:40:32.962Z,98658.05
2019-02-04T03:45:36.372Z,98664.19
2019-02-04T03:50:39.877Z,98669.16
2019-02-04T03:55:43.280Z,98673.08
2019-02-04T04:00:46.895Z,98681.42
2019-02-04T04:05:50.271Z,98694.23
2019-02-04T04:10:53.764Z,98699.42
2019-02-04T04:15:57.311Z,98705.64
2019-02-04T04:21:00.774Z,98712.59
2019-02-04T04:26:04.152Z,98717.42
2019-02-04T04:31:07.723Z,98724.55
2019-02-04T04:36:11.099Z,98733.65
2019-02-04T04:41:14.619Z,98741.13
2019-02-04T04:46:17.981Z,98749.02
2019-02-04T04:51:21.478Z,98752.95
2019-02-04T04:56:24.845Z,98764.92
2019-02-04T05:01:28.220Z,98768.31
2019-02-04T05:06:31.634Z,98773.43
2019-02-04T05:11:35.036Z,98790.55
2019-02-04T05:16:38.462Z,98800.22
2019-02-04T05:21:41.915Z,98816.17
2019-02-04T05:26:45.291Z,98814.42
2019-02-04T05:31:48.775Z,98808.55
2019-02-04T05:36:52.155Z,98809.36
2019-02-04T05:41:55.590Z,98816.55
2019-02-04T05:46:59.087Z,98827.75
2019-02-04T05:52:02.507Z,98832.18
2019-02-04T05:57:05.973Z,98841.59
2019-02-04T06:02:09.619Z,98856.67
2019-02-04T06:07:15.398Z,98846.52
2019-02-04T06:12:17.528Z,98851.20
2019-02-04T06:17:20.920Z,98859.25
2019-02-04T06:22:24.430Z,98861.53
2019-02-04T06:27:27.940Z,98862.43
2019-02-04T06:32:31.354Z,98865.06
2019-02-04T06:37:34.777Z,98870.69
2019-02-04T06:42:38.181Z,98865.19
2019-02-04T06:47:41.595Z,98874.06
2019-02-04T06:52:45.000Z,98880.74
2019-02-04T06:57:48.436Z,98883.38
2019-02-04T07:02:51.816Z,98877.29
2019-02-04T07:07:55.245Z,98886.59
2019-02-04T07:12:58.706Z,98892.69
2019-02-04T07:18:02.259Z,98900.62
2019-02-04T07:23:05.561Z,98904.67
2019-02-04T07:28:08.955Z,98908.31
2019-02-04T07:33:12.367Z,98916.23
2019-02-04T07:38:15.800Z,98924.92
2019-02-04T07:43:19.258Z,98933.41
2019-02-04T07:48:22.751Z,98932.54
2019-02-04T07:53:26.117Z,98930.55
2019-02-04T07:58:29.547Z,98928.31
2019-02-04T08:03:32.916Z,98936.35
2019-02-04T08:08:36.306Z,98944.50
2019-02-04T08:13:39.732Z,98948.11
2019-02-04T08:18:43.111Z,98959.24
2019-02-04T08:23:46.497Z,98958.81
2019-02-04T08:28:49.968Z,98958.34
2019-02-04T08:33:53.367Z,98966.66
2019-02-04T08:38:56.786Z,98976.88
2019-02-04T08:44:00.236Z,98977.28
2019-02-04T08:49:03.622Z,98978.14
2019-02-04T08:54:07.027Z,98980.06
2019-02-04T08:59:10.398Z,98979.05
2019-02-04T09:04:13.789Z,98978.16
2019-02-04T09:09:17.255Z,98979.67
2019-02-04T09:14:20.668Z,98985.64
2019-02-04T09:19:24.077Z,98988.94
2019-02-04T09:24:27.634Z,98996.55
2019-02-04T09:29:31.066Z,98986.20
2019-02-04T09:34:34.541Z,98977.64
2019-02-04T09:39:37.945Z,98976.16
2019-02-04T09:44:41.356Z,98975.42
2019-02-04T09:49:44.796Z,98972.74
2019-02-04T09:54:48.233Z,98984.66
2019-02-04T09:59:51.771Z,98990.71
2019-02-04T10:04:55.225Z,98985.11
2019-02-04T10:09:59.129Z,98982.50
2019-02-04T10:15:02.355Z,98981.55
2019-02-04T10:20:06.483Z,98982.26
2019-02-04T10:25:10.715Z,98977.76
2019-02-04T10:30:16.566Z,98974.06
2019-02-04T10:35:20.394Z,98968.86
2019-02-04T10:40:27.565Z,98971.34
2019-02-04T10:45:30.967Z,98959.09
2019-02-04T10:50:45.592Z,98946.22
2019-02-04T10:55:39.746Z,98952.91
2019-02-04T11:00:43.339Z,98947.31
2019-02-04T11:05:46.721Z,98948.11
2019-02-04T11:10:50.161Z,98942.59
2019-02-04T11:15:53.568Z,98934.55
2019-02-04T11:20:58.382Z,98924.76
2019-02-04T11:26:00.542Z,98926.98
2019-02-04T11:31:06.681Z,98925.22
2019-02-04T11:36:10.110Z,98914.27
2019-02-04T11:41:13.527Z,98921.05
2019-02-04T11:46:17.106Z,98919.47
2019-02-04T11:51:20.673Z,98910.53
2019-02-04T11:56:24.091Z,98909.23
2019-02-04T12:01:27.483Z,98909.42
2019-02-04T12:06:30.888Z,98896.23
2019-02-04T12:11:34.424Z,98899.41
2019-02-04T12:16:37.839Z,98888.84
2019-02-04T12:21:41.337Z,98900.41
2019-02-04T12:26:44.689Z,98885.42
2019-02-04T12:31:48.062Z,98897.88
2019-02-04T12:36:51.593Z,98876.38
2019-02-04T12:41:55.067Z,98871.67
2019-02-04T12:46:58.618Z,98860.48
2019-02-04T12:52:02.015Z,98850.99
2019-02-04T12:57:05.482Z,98842.00
2019-02-04T13:02:08.859Z,98841.57
2019-02-04T13:07:12.373Z,98843.67
2019-02-04T13:12:15.803Z,98831.48
2019-02-04T13:17:19.366Z,98836.23
2019-02-04T13:22:23.141Z,98836.32
2019-02-04T13:27:26.655Z,98825.25
2019-02-04T13:32:30.130Z,98805.81
2019-02-04T13:37:33.708Z,98796.54
2019-02-04T13:42:37.227Z,98795.33
2019-02-04T13:47:40.946Z,98801.89
2019-02-04T13:52:44.476Z,98804.17
2019-02-04T13:57:47.954Z,98794.58
2019-02-04T14:02:58.994Z,98786.84
2019-02-04T14:07:55.307Z,98780.56
2019-02-04T14:12:58.902Z,98778.88
2019-02-04T14:18:02.470Z,98766.83
2019-02-04T14:23:06.179Z,98756.11
2019-02-04T14:28:09.927Z,98743.14
2019-02-04T14:33:13.755Z,98747.05
2019-02-04T14:38:17.533Z,98748.80
2019-02-04T14:43:25.048Z,98744.91
2019-02-04T14:48:46.520Z,98732.40
2019-02-04T14:56:21.254Z,98727.32
2019-02-04T15:01:42.420Z,98723.42
2019-02-04T15:09:05.361Z,98727.78
2019-02-04T15:16:21.007Z,98736.79
2019-02-04T15:21:35.557Z,98732.91
2019-02-04T15:28:50.995Z,98740.11
2019-02-04T15:34:37.268Z,98741.80
2019-02-04T15:40:21.382Z,98743.36
2019-02-04T15:47:36.073Z,98740.23
2019-02-04T15:52:45.709Z,98737.36
2019-02-04T15:57:43.355Z,98740.31
2019-02-04T16:02:47.054Z,98737.16
2019-02-04T16:07:50.550Z,98735.27
2019-02-04T16:12:54.219Z,98742.72
2019-02-04T16:17:57.737Z,98742.25
2019-02-04T16:23:01.338Z,98753.31
2019-02-04T16:28:05.005Z,98753.65
2019-02-04T16:33:08.527Z,98763.19
2019-02-04T16:38:12.272Z,98763.60
2019-02-04T16:43:15.806Z,98769.50
2019-02-04T16:48:19.304Z,98775.14
2019-02-04T16:53:23.194Z,98779.32
2019-02-04T16:58:26.708Z,98781.98
2019-02-04T17:03:30.347Z,98777.14
2019-02-04T17:08:33.904Z,98785.03
2019-02-04T17:13:37.580Z,98788.70
2019-02-04T17:18:41.232Z,98792.39
2019-02-04T17:23:44.863Z,98796.74
2019-02-04T17:28:48.654Z,98784.50
2019-02-04T17:33:52.285Z,98791.14
2019-02-04T17:38:55.858Z,98782.00
2019-02-04T17:43:59.990Z,98788.59
2019-02-04T17:49:03.497Z,98789.34
2019-02-04T17:54:07.096Z,98789.59
2019-02-04T17:59:10.780Z,98790.34
2019-02-04T18:04:14.335Z,98793.47
2019-02-04T18:09:18.480Z,98793.66
2019-02-04T18:14:21.995Z,98788.41
2019-02-04T18:19:25.648Z,98806.12
2019-02-04T18:24:29.529Z,98812.13
2019-02-04T18:29:33.229Z,98815.08
2019-02-04T18:34:36.888Z,98817.17
2019-02-04T18:39:40.583Z,98823.14
2019-02-04T18:44:44.105Z,98821.81
2019-02-04T18:49:47.865Z,98826.50
2019-02-04T18:54:51.636Z,98824.65
2019-02-04T18:59:55.210Z,98813.50
2019-02-04T19:04:58.805Z,98807.86
2019-02-04T19:10:02.588Z,98804.73
2019-02-04T19:15:08.373Z,98804.92
2019-02-04T19:20:13.840Z,98803.87
2019-02-04T19:25:17.814Z,98804.52
2019-02-04T19:30:25.375Z,98806.27
2019-02-04T19:35:28.964Z,98802.36
2019-02-04T19:40:32.498Z,98800.12
2019-02-04T19:45:36.707Z,98804.97
2019-02-04T19:50:41.709Z,98809.55
2019-02-04T19:55:46.050Z,98805.64
2019-02-04T20:00:50.133Z,98812.77
2019-02-04T20:05:54.456Z,98817.68
2019-02-04T20:10:58.376Z,98813.19
2019-02-04T20:16:02.188Z,98811.39
2019-02-04T20:21:06.478Z,98820.67
2019-02-04T20:26:10.469Z,98817.14
2019-02-04T20:31:14.223Z,98823.88
2019-02-04T20:36:17.801Z,98834.87
2019-02-04T20:41:21.565Z,98825.53
2019-02-04T20:46:25.153Z,98832.78
2019-02-04T20:51:28.733Z,98839.07
2019-02-04T20:56:33.982Z,98843.20
2019-02-04T21:01:37.096Z,98840.78
2019-02-04T21:06:40.950Z,98843.28
2019-02-04T21:11:44.637Z,98850.52
2019-02-04T21:16:48.604Z,98848.39
2019-02-04T21:21:52.292Z,98850.80
2019-02-04T21:26:56.177Z,98846.50
2019-02-04T21:32:00.012Z,98846.11
2019-02-04T21:37:03.771Z,98846.31
2019-02-04T21:42:07.759Z,98848.97
2019-02-04T21:47:11.437Z,98840.02
2019-02-04T21:52:15.415Z,98842.76
2019-02-04T21:57:19.402Z,98832.78
2019-02-04T22:02:24.496Z,98819.09
2019-02-04T22:07:28.367Z,98814.52
2019-02-04T22:12:32.148Z,98816.25
2019-02-04T22:17:36.221Z,98816.14
2019-02-04T22:22:40.100Z,98817.97
2019-02-04T22:27:44.197Z,98812.80
2019-02-04T22:32:48.146Z,98811.66
2019-02-04T22:37:51.949Z,98815.66
2019-02-04T22:42:57.375Z,98814.44
2019-02-04T22:48:01.218Z,98804.47
2019-02-04T22:53:04.953Z,98800.83
2019-02-04T22:58:08.537Z,98802.10
2019-02-04T23:03:12.673Z,98795.50
2019-02-04T23:08:16.241Z,98787.23
2019-02-04T23:13:19.745Z,98777.04
2019-02-04T23:18:23.462Z,98776.62
2019-02-04T23:23:27.089Z,98785.42
2019-02-04T23:28:30.832Z,98783.16
2019-02-04T23:33:34.625Z,98782.58
2019-02-04T23:38:38.317Z,98795.44
2019-02-04T23:43:41.944Z,98790.81
2019-02-04T23:48:45.340Z,98791.16
2019-02-04T23:53:48.947Z,98794.69
2019-02-04T23:58:52.483Z,98798.06
